sensor_id;sensor_type;location;lat;lon;timestamp;pressure;altitude;pressure_sealevel;temperature;humidity
32251;BME280;41295;48.518;9.206;2023-02-14T00:01:23;98993.88;;;2.13;64.30
32251;BME280;41295;48.518;9.206;2023-02-14T00:03:26;98988.59;;;2.07;64.12
32251;BME280;41295;48.518;9.206;2023-02-14T00:05:28;98986.75;;;2.01;64.33
32251;BME280;41295;48.518;9.206;2023-02-14T00:07:31;98986.59;;;1.97;64.02
32251;BME280;41295;48.518;9.206;2023-02-14T00:09:34;98984.81;;;1.92;64.28
32251;BME280;41295;48.518;9.206;2023-02-14T00:11:38;98980.44;;;1.90;63.89
32251;BME280;41295;48.518;9.206;2023-02-14T00:13:41;98980.34;;;1.85;64.01
32251;BME280;41295;48.518;9.206;2023-02-14T00:16:04;98977.75;;;1.84;64.00
32251;BME280;41295;48.518;9.206;2023-02-14T00:18:06;98980.22;;;1.80;64.73
32251;BME280;41295;48.518;9.206;2023-02-14T00:20:09;98980.28;;;1.82;64.28
32251;BME280;41295;48.518;9.206;2023-02-14T00:22:12;98970.72;;;1.78;64.82
32251;BME280;41295;48.518;9.206;2023-02-14T00:24:16;98966.44;;;1.77;64.89
32251;BME280;41295;48.518;9.206;2023-02-14T00:26:19;98966.31;;;1.74;65.27
32251;BME280;41295;48.518;9.206;2023-02-14T00:28:23;98973.19;;;1.73;65.02
32251;BME280;41295;48.518;9.206;2023-02-14T00:30:25;98972.34;;;1.74;65.23
32251;BME280;41295;48.518;9.206;2023-02-14T00:32:29;98969.78;;;1.74;64.71
32251;BME280;41295;48.518;9.206;2023-02-14T00:34:31;98965.59;;;1.78;64.91
32251;BME280;41295;48.518;9.206;2023-02-14T00:36:37;98967.28;;;1.77;64.55
32251;BME280;41295;48.518;9.206;2023-02-14T00:38:39;98972.47;;;1.79;64.53
32251;BME280;41295;48.518;9.206;2023-02-14T00:40:42;98967.28;;;1.77;64.30
32251;BME280;41295;48.518;9.206;2023-02-14T00:42:44;98969.00;;;1.77;64.04
32251;BME280;41295;48.518;9.206;2023-02-14T00:44:48;98968.13;;;1.76;63.27
32251;BME280;41295;48.518;9.206;2023-02-14T00:46:51;98963.75;;;1.74;63.52
32251;BME280;41295;48.518;9.206;2023-02-14T00:48:53;98968.88;;;1.72;62.59
32251;BME280;41295;48.518;9.206;2023-02-14T00:50:56;98969.69;;;1.70;63.21
32251;BME280;41295;48.518;9.206;2023-02-14T00:52:59;98967.88;;;1.67;63.44
32251;BME280;41295;48.518;9.206;2023-02-14T00:55:01;98965.97;;;1.60;63.69
32251;BME280;41295;48.518;9.206;2023-02-14T00:57:04;98971.06;;;1.56;63.96
32251;BME280;41295;48.518;9.206;2023-02-14T00:59:07;98964.91;;;1.51;64.20
32251;BME280;41295;48.518;9.206;2023-02-14T01:01:13;98971.78;;;1.52;64.06
32251;BME280;41295;48.518;9.206;2023-02-14T01:03:17;98972.66;;;1.53;63.70
32251;BME280;41295;48.518;9.206;2023-02-14T01:05:19;98974.34;;;1.52;64.02
32251;BME280;41295;48.518;9.206;2023-02-14T01:07:22;98973.56;;;1.53;64.34
32251;BME280;41295;48.518;9.206;2023-02-14T01:09:24;98973.50;;;1.52;64.43
32251;BME280;41295;48.518;9.206;2023-02-14T01:11:27;98974.41;;;1.54;64.40
32251;BME280;41295;48.518;9.206;2023-02-14T01:13:30;98973.44;;;1.50;63.40
32251;BME280;41295;48.518;9.206;2023-02-14T01:15:37;98969.16;;;1.49;64.83
32251;BME280;41295;48.518;9.206;2023-02-14T01:17:41;98973.41;;;1.49;64.54
32251;BME280;41295;48.518;9.206;2023-02-14T01:19:44;98972.34;;;1.40;64.83
32251;BME280;41295;48.518;9.206;2023-02-14T01:21:46;98975.63;;;1.35;64.50
32251;BME280;41295;48.518;9.206;2023-02-14T01:23:50;98975.50;;;1.30;64.94
32251;BME280;41295;48.518;9.206;2023-02-14T01:25:53;98983.22;;;1.30;65.15
32251;BME280;41295;48.518;9.206;2023-02-14T01:27:56;98983.00;;;1.22;65.58
32251;BME280;41295;48.518;9.206;2023-02-14T01:29:59;98971.75;;;1.18;65.44
32251;BME280;41295;48.518;9.206;2023-02-14T01:32:02;98975.19;;;1.19;65.62
32251;BME280;41295;48.518;9.206;2023-02-14T01:34:06;98969.16;;;1.17;65.95
32251;BME280;41295;48.518;9.206;2023-02-14T01:36:14;98970.03;;;1.17;66.11
32251;BME280;41295;48.518;9.206;2023-02-14T01:38:17;98963.97;;;1.15;65.73
32251;BME280;41295;48.518;9.206;2023-02-14T01:40:20;98968.25;;;1.16;65.62
32251;BME280;41295;48.518;9.206;2023-02-14T01:42:22;98964.81;;;1.14;66.10
32251;BME280;41295;48.518;9.206;2023-02-14T01:44:56;98965.56;;;1.12;66.18
32251;BME280;41295;48.518;9.206;2023-02-14T01:47:01;98969.03;;;1.12;66.36
32251;BME280;41295;48.518;9.206;2023-02-14T01:49:10;98965.63;;;1.13;66.49
32251;BME280;41295;48.518;9.206;2023-02-14T01:51:17;98964.81;;;1.14;66.34
32251;BME280;41295;48.518;9.206;2023-02-14T01:53:24;98969.84;;;1.11;66.12
32251;BME280;41295;48.518;9.206;2023-02-14T01:55:29;98969.03;;;1.12;66.00
32251;BME280;41295;48.518;9.206;2023-02-14T01:57:36;98970.69;;;1.10;66.00
32251;BME280;41295;48.518;9.206;2023-02-14T01:59:44;98968.16;;;1.12;66.22
32251;BME280;41295;48.518;9.206;2023-02-14T02:01:49;98962.09;;;1.10;65.61
32251;BME280;41295;48.518;9.206;2023-02-14T02:03:55;98964.59;;;1.06;64.88
32251;BME280;41295;48.518;9.206;2023-02-14T02:06:04;98966.34;;;1.09;65.05
32251;BME280;41295;48.518;9.206;2023-02-14T02:08:09;98959.47;;;1.08;63.85
32251;BME280;41295;48.518;9.206;2023-02-14T02:10:12;98962.84;;;1.05;64.14
32251;BME280;41295;48.518;9.206;2023-02-14T02:12:15;98967.13;;;1.05;64.41
32251;BME280;41295;48.518;9.206;2023-02-14T02:14:19;98965.44;;;1.05;63.96
32251;BME280;41295;48.518;9.206;2023-02-14T02:16:37;98957.59;;;1.02;64.12
32251;BME280;41295;48.518;9.206;2023-02-14T02:18:51;98962.63;;;0.98;64.58
32251;BME280;41295;48.518;9.206;2023-02-14T02:21:28;98956.56;;;0.95;65.20
32251;BME280;41295;48.518;9.206;2023-02-14T02:24:04;98953.09;;;0.93;65.49
32251;BME280;41295;48.518;9.206;2023-02-14T02:29:27;98961.41;;;0.84;65.99
32251;BME280;41295;48.518;9.206;2023-02-14T02:31:58;98950.31;;;0.86;66.00
32251;BME280;41295;48.518;9.206;2023-02-14T02:34:26;98956.28;;;0.86;65.86
32251;BME280;41295;48.518;9.206;2023-02-14T02:36:46;98955.50;;;0.87;64.90
32251;BME280;41295;48.518;9.206;2023-02-14T02:39:03;98949.47;;;0.87;65.41
32251;BME280;41295;48.518;9.206;2023-02-14T02:41:16;98949.34;;;0.82;65.06
32251;BME280;41295;48.518;9.206;2023-02-14T02:43:29;98957.03;;;0.80;65.45
32251;BME280;41295;48.518;9.206;2023-02-14T02:45:41;98954.38;;;0.79;66.00
32251;BME280;41295;48.518;9.206;2023-02-14T02:48:05;98955.25;;;0.79;65.21
32251;BME280;41295;48.518;9.206;2023-02-14T02:50:19;98951.00;;;0.80;65.16
32251;BME280;41295;48.518;9.206;2023-02-14T02:52:44;98958.72;;;0.80;64.92
32251;BME280;41295;48.518;9.206;2023-02-14T02:55:10;98953.56;;;0.80;64.48
32251;BME280;41295;48.518;9.206;2023-02-14T02:57:18;98955.97;;;0.75;64.56
32251;BME280;41295;48.518;9.206;2023-02-14T02:59:24;98953.41;;;0.75;64.13
32251;BME280;41295;48.518;9.206;2023-02-14T03:01:31;98955.03;;;0.71;64.47
32251;BME280;41295;48.518;9.206;2023-02-14T03:03:36;98949.97;;;0.73;65.15
32251;BME280;41295;48.518;9.206;2023-02-14T03:05:59;98955.69;;;0.64;65.24
32251;BME280;41295;48.518;9.206;2023-02-14T03:08:04;98953.97;;;0.65;65.77
32251;BME280;41295;48.518;9.206;2023-02-14T03:10:11;98956.47;;;0.62;65.68
32251;BME280;41295;48.518;9.206;2023-02-14T03:12:23;98950.41;;;0.59;66.03
32251;BME280;41295;48.518;9.206;2023-02-14T03:14:34;98948.63;;;0.57;65.64
32251;BME280;41295;48.518;9.206;2023-02-14T03:16:49;98944.28;;;0.54;66.07
32251;BME280;41295;48.518;9.206;2023-02-14T03:19:14;98951.88;;;0.51;67.04
32251;BME280;41295;48.518;9.206;2023-02-14T03:21:43;98946.75;;;0.51;66.50
32251;BME280;41295;48.518;9.206;2023-02-14T03:23:53;98951.16;;;0.55;66.80
32251;BME280;41295;48.518;9.206;2023-02-14T03:26:04;98954.63;;;0.57;65.69
32251;BME280;41295;48.518;9.206;2023-02-14T03:28:14;98955.59;;;0.61;65.37
32251;BME280;41295;48.518;9.206;2023-02-14T03:30:24;98955.63;;;0.63;65.00
32251;BME280;41295;48.518;9.206;2023-02-14T03:32:34;98948.81;;;0.63;65.16
32251;BME280;41295;48.518;9.206;2023-02-14T03:34:47;98949.59;;;0.61;64.56
32251;BME280;41295;48.518;9.206;2023-02-14T03:36:55;98950.41;;;0.59;65.25
32251;BME280;41295;48.518;9.206;2023-02-14T03:39:05;98956.50;;;0.63;65.23
32251;BME280;41295;48.518;9.206;2023-02-14T03:41:12;98957.44;;;0.65;65.10
32251;BME280;41295;48.518;9.206;2023-02-14T03:43:19;98956.59;;;0.66;65.11
32251;BME280;41295;48.518;9.206;2023-02-14T03:45:32;98962.56;;;0.65;65.25
32251;BME280;41295;48.518;9.206;2023-02-14T03:47:36;98953.94;;;0.63;64.65
32251;BME280;41295;48.518;9.206;2023-02-14T03:49:43;98956.34;;;0.57;64.96
32251;BME280;41295;48.518;9.206;2023-02-14T03:51:48;98953.66;;;0.54;65.33
32251;BME280;41295;48.518;9.206;2023-02-14T03:53:55;98947.56;;;0.50;64.60
32251;BME280;41295;48.518;9.206;2023-02-14T03:56:07;98949.97;;;0.44;65.29
32251;BME280;41295;48.518;9.206;2023-02-14T03:58:16;98949.91;;;0.42;65.21
32251;BME280;41295;48.518;9.206;2023-02-14T04:00:21;98950.56;;;0.35;65.49
32251;BME280;41295;48.518;9.206;2023-02-14T04:02:28;98952.09;;;0.30;65.01
32251;BME280;41295;48.518;9.206;2023-02-14T04:04:35;98951.94;;;0.25;65.62
32251;BME280;41295;48.518;9.206;2023-02-14T04:06:39;98945.13;;;0.26;64.82
32251;BME280;41295;48.518;9.206;2023-02-14T04:08:41;98940.00;;;0.26;64.92
32251;BME280;41295;48.518;9.206;2023-02-14T04:10:44;98942.56;;;0.26;65.51
32251;BME280;41295;48.518;9.206;2023-02-14T04:12:48;98936.41;;;0.20;65.25
32251;BME280;41295;48.518;9.206;2023-02-14T04:14:51;98939.06;;;0.23;65.38
32251;BME280;41295;48.518;9.206;2023-02-14T04:16:54;98941.47;;;0.17;65.64
32251;BME280;41295;48.518;9.206;2023-02-14T04:19:14;98947.41;;;0.16;66.07
32251;BME280;41295;48.518;9.206;2023-02-14T04:21:25;98947.47;;;0.18;65.28
32251;BME280;41295;48.518;9.206;2023-02-14T04:23:28;98942.38;;;0.19;64.96
32251;BME280;41295;48.518;9.206;2023-02-14T04:25:31;98936.41;;;0.20;64.98
32251;BME280;41295;48.518;9.206;2023-02-14T04:27:33;98938.19;;;0.21;65.06
32251;BME280;41295;48.518;9.206;2023-02-14T04:29:39;98934.72;;;0.21;64.90
32251;BME280;41295;48.518;9.206;2023-02-14T04:31:42;98940.66;;;0.20;64.64
32251;BME280;41295;48.518;9.206;2023-02-14T04:33:44;98932.97;;;0.20;65.10
32251;BME280;41295;48.518;9.206;2023-02-14T04:35:48;98941.28;;;0.13;64.58
32251;BME280;41295;48.518;9.206;2023-02-14T04:37:51;98931.63;;;0.04;65.23
32251;BME280;41295;48.518;9.206;2023-02-14T04:39:53;98929.97;;;0.06;65.46
32251;BME280;41295;48.518;9.206;2023-02-14T04:41:56;98933.03;;;-0.06;65.30
32251;BME280;41295;48.518;9.206;2023-02-14T04:43:59;98927.03;;;-0.07;66.38
32251;BME280;41295;48.518;9.206;2023-02-14T04:46:03;98926.19;;;-0.07;66.43
32251;BME280;41295;48.518;9.206;2023-02-14T04:48:05;98926.09;;;-0.09;67.17
32251;BME280;41295;48.518;9.206;2023-02-14T04:50:11;98926.22;;;-0.06;67.42
32251;BME280;41295;48.518;9.206;2023-02-14T04:52:14;98929.63;;;-0.05;67.53
32251;BME280;41295;48.518;9.206;2023-02-14T04:54:16;98926.22;;;-0.06;67.54
32251;BME280;41295;48.518;9.206;2023-02-14T04:56:19;98921.09;;;-0.06;67.55
32251;BME280;41295;48.518;9.206;2023-02-14T04:58:22;98915.91;;;-0.07;67.03
32251;BME280;41295;48.518;9.206;2023-02-14T05:00:24;98923.66;;;-0.06;67.37
32251;BME280;41295;48.518;9.206;2023-02-14T05:02:28;98925.44;;;-0.03;67.75
32251;BME280;41295;48.518;9.206;2023-02-14T05:04:31;98933.13;;;-0.03;67.42
32251;BME280;41295;48.518;9.206;2023-02-14T05:06:34;98928.03;;;-0.02;66.65
32251;BME280;41295;48.518;9.206;2023-02-14T05:08:37;98933.16;;;-0.02;66.64
32251;BME280;41295;48.518;9.206;2023-02-14T05:10:40;98923.03;;;0.02;65.33
32251;BME280;41295;48.518;9.206;2023-02-14T05:12:42;98926.50;;;0.04;65.49
32251;BME280;41295;48.518;9.206;2023-02-14T05:14:45;98928.28;;;0.06;65.42
32251;BME280;41295;48.518;9.206;2023-02-14T05:16:48;98932.53;;;0.06;65.64
32251;BME280;41295;48.518;9.206;2023-02-14T05:18:52;98934.31;;;0.07;64.89
32251;BME280;41295;48.518;9.206;2023-02-14T05:20:54;98936.00;;;0.06;65.22
32251;BME280;41295;48.518;9.206;2023-02-14T05:22:57;98935.94;;;0.05;65.25
32251;BME280;41295;48.518;9.206;2023-02-14T05:25:04;98943.50;;;0.00;65.43
32251;BME280;41295;48.518;9.206;2023-02-14T05:27:06;98941.69;;;-0.03;65.73
32251;BME280;41295;48.518;9.206;2023-02-14T05:29:11;98948.56;;;-0.02;65.22
32251;BME280;41295;48.518;9.206;2023-02-14T05:31:14;98948.69;;;0.02;65.04
32251;BME280;41295;48.518;9.206;2023-02-14T05:33:17;98950.38;;;0.01;65.44
32251;BME280;41295;48.518;9.206;2023-02-14T05:35:21;98952.94;;;0.01;64.88
32251;BME280;41295;48.518;9.206;2023-02-14T05:37:24;98948.56;;;-0.02;64.76
32251;BME280;41295;48.518;9.206;2023-02-14T05:39:26;98951.75;;;-0.09;64.53
32251;BME280;41295;48.518;9.206;2023-02-14T05:41:29;98945.59;;;-0.14;65.67
32251;BME280;41295;48.518;9.206;2023-02-14T05:43:32;98943.78;;;-0.18;65.99
32251;BME280;41295;48.518;9.206;2023-02-14T05:45:34;98941.03;;;-0.23;66.57
32251;BME280;41295;48.518;9.206;2023-02-14T05:47:37;98941.00;;;-0.25;66.51
32251;BME280;41295;48.518;9.206;2023-02-14T05:49:40;98943.56;;;-0.25;66.86
32251;BME280;41295;48.518;9.206;2023-02-14T05:51:44;98941.03;;;-0.23;66.83
32251;BME280;41295;48.518;9.206;2023-02-14T05:53:46;98935.97;;;-0.21;67.16
32251;BME280;41295;48.518;9.206;2023-02-14T05:55:49;98947.16;;;-0.19;67.05
32251;BME280;41295;48.518;9.206;2023-02-14T05:57:54;98940.47;;;-0.14;66.59
32251;BME280;41295;48.518;9.206;2023-02-14T05:59:57;98944.88;;;-0.10;66.77
32251;BME280;41295;48.518;9.206;2023-02-14T06:01:59;98953.69;;;-0.02;68.20
32251;BME280;41295;48.518;9.206;2023-02-14T06:04:02;98943.13;;;-0.13;68.77
32251;BME280;41295;48.518;9.206;2023-02-14T06:06:05;98946.47;;;-0.14;68.83
32251;BME280;41295;48.518;9.206;2023-02-14T06:08:09;98943.13;;;-0.13;67.79
32251;BME280;41295;48.518;9.206;2023-02-14T06:10:11;98955.94;;;-0.13;68.52
32251;BME280;41295;48.518;9.206;2023-02-14T06:12:14;98942.22;;;-0.13;68.52
32251;BME280;41295;48.518;9.206;2023-02-14T06:14:17;98951.63;;;-0.14;68.66
32251;BME280;41295;48.518;9.206;2023-02-14T06:16:19;98958.59;;;-0.09;69.09
32251;BME280;41295;48.518;9.206;2023-02-14T06:18:22;98952.53;;;-0.11;69.22
32251;BME280;41295;48.518;9.206;2023-02-14T06:20:27;98963.69;;;-0.11;69.31
32251;BME280;41295;48.518;9.206;2023-02-14T06:22:30;98956.75;;;-0.14;69.14
32251;BME280;41295;48.518;9.206;2023-02-14T06:24:34;98961.91;;;-0.12;68.47
32251;BME280;41295;48.518;9.206;2023-02-14T06:26:37;98962.69;;;-0.15;68.93
32251;BME280;41295;48.518;9.206;2023-02-14T06:28:39;98964.47;;;-0.12;68.89
32251;BME280;41295;48.518;9.206;2023-02-14T06:30:45;98964.53;;;-0.10;68.33
32251;BME280;41295;48.518;9.206;2023-02-14T06:32:47;98963.69;;;-0.11;67.47
32251;BME280;41295;48.518;9.206;2023-02-14T06:34:50;98965.31;;;-0.13;67.02
32251;BME280;41295;48.518;9.206;2023-02-14T06:36:52;98961.88;;;-0.14;66.79
32251;BME280;41295;48.518;9.206;2023-02-14T06:38:55;98961.97;;;-0.10;66.26
32251;BME280;41295;48.518;9.206;2023-02-14T06:41:03;98967.09;;;-0.10;66.17
32251;BME280;41295;48.518;9.206;2023-02-14T06:43:06;98960.28;;;-0.10;65.41
32251;BME280;41295;48.518;9.206;2023-02-14T06:45:09;98956.88;;;-0.09;65.63
32251;BME280;41295;48.518;9.206;2023-02-14T06:47:12;98962.13;;;-0.06;65.60
32251;BME280;41295;48.518;9.206;2023-02-14T06:49:14;98959.56;;;-0.06;65.27
32251;BME280;41295;48.518;9.206;2023-02-14T06:51:17;98966.34;;;-0.08;65.17
32251;BME280;41295;48.518;9.206;2023-02-14T06:53:20;98960.28;;;-0.10;65.68
32251;BME280;41295;48.518;9.206;2023-02-14T06:55:23;98960.19;;;-0.13;66.33
32251;BME280;41295;48.518;9.206;2023-02-14T06:57:27;98962.78;;;-0.11;66.25
32251;BME280;41295;48.518;9.206;2023-02-14T06:59:29;98965.31;;;-0.13;65.78
32251;BME280;41295;48.518;9.206;2023-02-14T07:01:32;98967.84;;;-0.15;65.59
32251;BME280;41295;48.518;9.206;2023-02-14T07:03:35;98966.03;;;-0.17;66.08
32251;BME280;41295;48.518;9.206;2023-02-14T07:05:37;98966.06;;;-0.16;65.88
32251;BME280;41295;48.518;9.206;2023-02-14T07:07:40;98966.94;;;-0.15;65.61
32251;BME280;41295;48.518;9.206;2023-02-14T07:09:43;98965.22;;;-0.16;65.64
32251;BME280;41295;48.518;9.206;2023-02-14T07:11:45;98966.94;;;-0.15;65.81
32251;BME280;41295;48.518;9.206;2023-02-14T07:13:49;98963.69;;;-0.11;65.75
32251;BME280;41295;48.518;9.206;2023-02-14T07:15:52;98962.84;;;-0.10;65.85
32251;BME280;41295;48.518;9.206;2023-02-14T07:17:54;98956.03;;;-0.09;65.79
32251;BME280;41295;48.518;9.206;2023-02-14T07:19:57;98956.03;;;-0.09;66.50
32251;BME280;41295;48.518;9.206;2023-02-14T07:21:59;98954.47;;;-0.04;66.82
32251;BME280;41295;48.518;9.206;2023-02-14T07:24:02;98959.66;;;-0.03;66.42
32251;BME280;41295;48.518;9.206;2023-02-14T07:26:05;98956.22;;;-0.03;67.06
32251;BME280;41295;48.518;9.206;2023-02-14T07:28:07;98953.81;;;0.02;66.64
32251;BME280;41295;48.518;9.206;2023-02-14T07:30:12;98959.03;;;0.05;67.35
32251;BME280;41295;48.518;9.206;2023-02-14T07:32:15;98960.75;;;0.06;67.03
32251;BME280;41295;48.518;9.206;2023-02-14T07:34:18;98961.69;;;0.08;67.79
32251;BME280;41295;48.518;9.206;2023-02-14T07:36:20;98959.22;;;0.11;68.14
32251;BME280;41295;48.518;9.206;2023-02-14T07:38:23;98961.03;;;0.14;67.87
32251;BME280;41295;48.518;9.206;2023-02-14T07:40:26;98961.94;;;0.16;68.01
32251;BME280;41295;48.518;9.206;2023-02-14T07:42:30;98956.06;;;0.20;68.32
32251;BME280;41295;48.518;9.206;2023-02-14T07:44:33;98961.28;;;0.21;68.07
32251;BME280;41295;48.518;9.206;2023-02-14T07:46:37;98962.31;;;0.28;68.62
32251;BME280;41295;48.518;9.206;2023-02-14T07:48:39;98945.22;;;0.29;68.38
32251;BME280;41295;48.518;9.206;2023-02-14T07:50:42;98953.88;;;0.32;68.61
32251;BME280;41295;48.518;9.206;2023-02-14T07:52:45;98948.91;;;0.37;68.38
32251;BME280;41295;48.518;9.206;2023-02-14T07:54:47;98951.50;;;0.39;69.01
32251;BME280;41295;48.518;9.206;2023-02-14T07:56:50;98950.69;;;0.40;69.46
32251;BME280;41295;48.518;9.206;2023-02-14T07:58:52;98947.38;;;0.44;69.35
32251;BME280;41295;48.518;9.206;2023-02-14T08:00:55;98947.38;;;0.44;69.84
32251;BME280;41295;48.518;9.206;2023-02-14T08:03:00;98946.63;;;0.46;70.11
32251;BME280;41295;48.518;9.206;2023-02-14T08:05:02;98943.31;;;0.51;70.22
32251;BME280;41295;48.518;9.206;2023-02-14T08:07:05;98949.44;;;0.56;70.41
32251;BME280;41295;48.518;9.206;2023-02-14T08:09:08;98949.56;;;0.59;71.01
32251;BME280;41295;48.518;9.206;2023-02-14T08:11:11;98947.91;;;0.63;70.37
32251;BME280;41295;48.518;9.206;2023-02-14T08:13:34;98946.28;;;0.65;70.55
32251;BME280;41295;48.518;9.206;2023-02-14T08:15:36;98949.75;;;0.67;71.24
32251;BME280;41295;48.518;9.206;2023-02-14T08:17:56;98946.47;;;0.71;71.13
32251;BME280;41295;48.518;9.206;2023-02-14T10:31:13;98876.72;;;2.31;74.68
32251;BME280;41295;48.518;9.206;2023-02-14T10:33:19;98868.28;;;2.38;75.29
32251;BME280;41295;48.518;9.206;2023-02-14T10:35:29;98873.63;;;2.46;76.06
32251;BME280;41295;48.518;9.206;2023-02-14T10:37:43;98875.44;;;2.52;75.54
32251;BME280;41295;48.518;9.206;2023-02-14T10:42:35;98866.31;;;2.68;75.57
32251;BME280;41295;48.518;9.206;2023-02-14T10:44:44;98857.03;;;2.75;76.01
32251;BME280;41295;48.518;9.206;2023-02-14T10:46:53;98851.19;;;2.84;75.21
32251;BME280;41295;48.518;9.206;2023-02-14T10:49:02;98846.09;;;2.88;75.22
32251;BME280;41295;48.518;9.206;2023-02-14T10:51:14;98850.56;;;2.97;75.01
32251;BME280;41295;48.518;9.206;2023-02-14T10:53:21;98846.66;;;3.20;74.34
32251;BME280;41295;48.518;9.206;2023-02-14T10:55:37;98846.66;;;3.20;74.36
32251;BME280;41295;48.518;9.206;2023-02-14T10:57:43;98844.97;;;3.22;74.20
32251;BME280;41295;48.518;9.206;2023-02-14T10:59:49;98839.03;;;3.26;73.88
32251;BME280;41295;48.518;9.206;2023-02-14T11:01:57;98840.84;;;3.32;74.50
32251;BME280;41295;48.518;9.206;2023-02-14T11:04:02;98834.88;;;3.36;73.65
32251;BME280;41295;48.518;9.206;2023-02-14T11:06:09;98833.19;;;3.36;74.05
32251;BME280;41295;48.518;9.206;2023-02-14T11:08:18;98828.13;;;3.41;73.75
32251;BME280;41295;48.518;9.206;2023-02-14T11:10:25;98830.72;;;3.44;73.54
32251;BME280;41295;48.518;9.206;2023-02-14T11:12:31;98823.94;;;3.49;73.44
32251;BME280;41295;48.518;9.206;2023-02-14T11:14:36;98818.81;;;3.53;72.92
32251;BME280;41295;48.518;9.206;2023-02-14T11:16:38;98817.19;;;3.58;72.71
32251;BME280;41295;48.518;9.206;2023-02-14T11:18:42;98808.66;;;3.62;72.85
32251;BME280;41295;48.518;9.206;2023-02-14T11:20:58;98809.59;;;3.67;72.44
32251;BME280;41295;48.518;9.206;2023-02-14T11:23:01;98808.75;;;3.70;72.73
32251;BME280;41295;48.518;9.206;2023-02-14T11:25:20;98801.91;;;3.72;72.28
32251;BME280;41295;48.518;9.206;2023-02-14T11:27:23;98802.88;;;3.79;72.16
32251;BME280;41295;48.518;9.206;2023-02-14T11:29:28;98798.59;;;3.81;72.40
32251;BME280;41295;48.518;9.206;2023-02-14T11:31:33;98790.94;;;3.87;72.26
32251;BME280;41295;48.518;9.206;2023-02-14T11:33:38;98783.25;;;3.90;72.62
32251;BME280;41295;48.518;9.206;2023-02-14T11:35:49;98791.00;;;3.93;72.29
32251;BME280;41295;48.518;9.206;2023-02-14T11:37:54;98783.34;;;3.96;72.23
32251;BME280;41295;48.518;9.206;2023-02-14T11:39:59;98791.91;;;3.97;71.82
32251;BME280;41295;48.518;9.206;2023-02-14T11:42:04;98782.53;;;4.02;72.14
32251;BME280;41295;48.518;9.206;2023-02-14T11:44:14;98783.50;;;4.11;71.43
32251;BME280;41295;48.518;9.206;2023-02-14T11:46:26;98778.34;;;4.09;71.59
32251;BME280;41295;48.518;9.206;2023-02-14T11:48:31;98777.47;;;4.10;71.56
32251;BME280;41295;48.518;9.206;2023-02-14T11:50:39;98769.72;;;4.10;72.03
32251;BME280;41295;48.518;9.206;2023-02-14T11:52:48;98769.78;;;4.15;72.11
32251;BME280;41295;48.518;9.206;2023-02-14T11:54:52;98768.09;;;4.17;72.14
32251;BME280;41295;48.518;9.206;2023-02-14T11:57:00;98764.69;;;4.19;72.09
32251;BME280;41295;48.518;9.206;2023-02-14T11:59:04;98754.38;;;4.21;72.43
32251;BME280;41295;48.518;9.206;2023-02-14T12:01:11;98755.28;;;4.25;72.35
32251;BME280;41295;48.518;9.206;2023-02-14T12:03:21;98751.03;;;4.30;72.34
32251;BME280;41295;48.518;9.206;2023-02-14T12:05:26;98752.75;;;4.32;71.87
32251;BME280;41295;48.518;9.206;2023-02-14T12:07:32;98745.09;;;4.37;71.89
32251;BME280;41295;48.518;9.206;2023-02-14T12:09:38;98746.88;;;4.43;71.81
32251;BME280;41295;48.518;9.206;2023-02-14T12:11:53;98743.56;;;4.56;71.43
32251;BME280;41295;48.518;9.206;2023-02-14T12:13:57;98742.81;;;4.70;71.42
32251;BME280;41295;48.518;9.206;2023-02-14T12:16:00;98743.72;;;4.74;71.56
32251;BME280;41295;48.518;9.206;2023-02-14T12:18:34;98734.28;;;4.76;71.54
32251;BME280;41295;48.518;9.206;2023-02-14T12:20:41;98734.28;;;4.79;71.18
32251;BME280;41295;48.518;9.206;2023-02-14T12:22:53;98732.63;;;4.84;71.47
32251;BME280;41295;48.518;9.206;2023-02-14T12:25:02;98731.78;;;4.87;71.63
32251;BME280;41295;48.518;9.206;2023-02-14T12:27:17;98731.81;;;4.91;71.86
32251;BME280;41295;48.518;9.206;2023-02-14T12:29:23;98734.47;;;4.96;71.52
32251;BME280;41295;48.518;9.206;2023-02-14T12:31:27;98735.38;;;5.01;71.78
32251;BME280;41295;48.518;9.206;2023-02-14T12:33:31;98726.78;;;5.05;71.78
32251;BME280;41295;48.518;9.206;2023-02-14T12:35:41;98720.81;;;5.14;71.83
32251;BME280;41295;48.518;9.206;2023-02-14T12:37:57;98713.13;;;5.25;71.86
32251;BME280;41295;48.518;9.206;2023-02-14T12:40:11;98710.59;;;5.36;71.65
32251;BME280;41295;48.518;9.206;2023-02-14T12:42:28;98708.06;;;5.43;71.58
32251;BME280;41295;48.518;9.206;2023-02-14T12:44:44;98708.97;;;5.49;71.32
32251;BME280;41295;48.518;9.206;2023-02-14T12:47:10;98707.28;;;5.54;71.20
32251;BME280;41295;48.518;9.206;2023-02-14T12:49:25;98709.91;;;5.61;71.24
32251;BME280;41295;48.518;9.206;2023-02-14T12:51:35;98704.75;;;5.67;71.24
32251;BME280;41295;48.518;9.206;2023-02-14T12:53:54;98704.75;;;5.70;71.23
32251;BME280;41295;48.518;9.206;2023-02-14T12:56:05;98699.63;;;5.73;71.16
32251;BME280;41295;48.518;9.206;2023-02-14T12:58:22;98694.47;;;5.80;71.18
32251;BME280;41295;48.518;9.206;2023-02-14T13:00:33;98695.38;;;5.91;71.34
32251;BME280;41295;48.518;9.206;2023-02-14T13:05:25;98686.88;;;6.16;70.48
32251;BME280;41295;48.518;9.206;2023-02-14T13:07:52;98683.47;;;6.40;69.90
32251;BME280;41295;48.518;9.206;2023-02-14T13:10:10;98681.78;;;6.66;69.13
32251;BME280;41295;48.518;9.206;2023-02-14T13:12:27;98670.56;;;6.87;68.19
32251;BME280;41295;48.518;9.206;2023-02-14T13:14:45;98668.78;;;7.20;66.93
32251;BME280;41295;48.518;9.206;2023-02-14T13:18:29;98660.91;;;7.58;64.84
32251;BME280;41295;48.518;9.206;2023-02-14T13:20:42;98671.25;;;7.72;64.65
32251;BME280;41295;48.518;9.206;2023-02-14T13:22:47;98660.81;;;7.86;64.64
32251;BME280;41295;48.518;9.206;2023-02-14T13:24:54;98656.31;;;8.21;64.54
32251;BME280;41295;48.518;9.206;2023-02-14T13:26:59;98658.50;;;8.85;63.12
32251;BME280;41295;48.518;9.206;2023-02-14T13:29:05;98647.56;;;9.43;61.57
32251;BME280;41295;48.518;9.206;2023-02-14T13:31:10;98648.22;;;9.62;60.61
32251;BME280;41295;48.518;9.206;2023-02-14T13:33:24;98645.59;;;9.62;59.62
32251;BME280;41295;48.518;9.206;2023-02-14T13:35:28;98645.63;;;9.61;59.95
32251;BME280;41295;48.518;9.206;2023-02-14T13:37:33;98646.59;;;9.49;60.37
32251;BME280;41295;48.518;9.206;2023-02-14T13:39:37;98653.72;;;9.36;60.99